sensor_id;sensor_type;location;lat;lon;timestamp;P1;durP1;ratioP1;P2;durP2;ratioP2
65825;SDS011;52586;-43.152;172.732;2022-09-03T00:01:05;3.10;;;0.90;;
65825;SDS011;52586;-43.152;172.732;2022-09-03T00:03:51;2.95;;;0.80;;
65825;SDS011;52586;-43.152;172.732;2022-09-03T00:06:30;1.73;;;0.70;;
65825;SDS011;52586;-43.152;172.732;2022-09-03T00:09:13;2.00;;;1.10;;
65825;SDS011;52586;-43.152;172.732;2022-09-03T00:11:59;5.05;;;1.10;;
65825;SDS011;52586;-43.152;172.732;2022-09-03T00:14:40;3.28;;;1.05;;
65825;SDS011;52586;-43.152;172.732;2022-09-03T00:17:22;2.88;;;1.60;;
65825;SDS011;52586;-43.152;172.732;2022-09-03T00:20:01;3.85;;;1.67;;
65825;SDS011;52586;-43.152;172.732;2022-09-03T00:22:37;2.40;;;1.58;;
65825;SDS011;52586;-43.152;172.732;2022-09-03T00:25:20;3.05;;;1.20;;
65825;SDS011;52586;-43.152;172.732;2022-09-03T00:28:01;2.33;;;0.70;;
65825;SDS011;52586;-43.152;172.732;2022-09-03T00:30:39;1.02;;;0.70;;
65825;SDS011;52586;-43.152;172.732;2022-09-03T00:33:23;0.65;;;0.55;;
65825;SDS011;52586;-43.152;172.732;2022-09-03T00:36:04;0.65;;;0.40;;
65825;SDS011;52586;-43.152;172.732;2022-09-03T00:38:44;1.08;;;0.60;;
65825;SDS011;52586;-43.152;172.732;2022-09-03T00:41:23;1.05;;;0.80;;
65825;SDS011;52586;-43.152;172.732;2022-09-03T00:44:12;1.13;;;0.50;;
65825;SDS011;52586;-43.152;172.732;2022-09-03T00:47:11;1.35;;;0.40;;
65825;SDS011;52586;-43.152;172.732;2022-09-03T00:49:56;0.30;;;0.30;;
65825;SDS011;52586;-43.152;172.732;2022-09-03T00:52:39;0.60;;;0.30;;
65825;SDS011;52586;-43.152;172.732;2022-09-03T00:55:26;0.95;;;0.40;;
65825;SDS011;52586;-43.152;172.732;2022-09-03T00:58:19;0.20;;;0.20;;
65825;SDS011;52586;-43.152;172.732;2022-09-03T01:01:09;0.30;;;0.30;;
65825;SDS011;52586;-43.152;172.732;2022-09-03T01:03:45;0.52;;;0.28;;
65825;SDS011;52586;-43.152;172.732;2022-09-03T01:06:27;1.00;;;0.47;;
65825;SDS011;52586;-43.152;172.732;2022-09-03T01:09:08;0.75;;;0.38;;
65825;SDS011;52586;-43.152;172.732;2022-09-03T01:11:51;0.35;;;0.30;;
65825;SDS011;52586;-43.152;172.732;2022-09-03T01:14:30;0.30;;;0.30;;
65825;SDS011;52586;-43.152;172.732;2022-09-03T01:17:12;0.35;;;0.28;;
65825;SDS011;52586;-43.152;172.732;2022-09-03T01:19:56;0.90;;;0.30;;
65825;SDS011;52586;-43.152;172.732;2022-09-03T01:22:53;0.73;;;0.40;;
65825;SDS011;52586;-43.152;172.732;2022-09-03T01:25:43;0.80;;;0.30;;
65825;SDS011;52586;-43.152;172.732;2022-09-03T01:28:26;0.77;;;0.30;;
65825;SDS011;52586;-43.152;172.732;2022-09-03T01:31:10;0.52;;;0.20;;
65825;SDS011;52586;-43.152;172.732;2022-09-03T01:33:49;0.52;;;0.43;;
65825;SDS011;52586;-43.152;172.732;2022-09-03T01:36:27;0.47;;;0.38;;
65825;SDS011;52586;-43.152;172.732;2022-09-03T01:39:02;2.15;;;0.43;;
65825;SDS011;52586;-43.152;172.732;2022-09-03T01:41:36;1.48;;;0.30;;
65825;SDS011;52586;-43.152;172.732;2022-09-03T01:44:35;0.40;;;0.30;;
65825;SDS011;52586;-43.152;172.732;2022-09-03T01:47:12;0.95;;;0.40;;
65825;SDS011;52586;-43.152;172.732;2022-09-03T01:49:50;0.57;;;0.50;;
65825;SDS011;52586;-43.152;172.732;2022-09-03T01:52:32;0.30;;;0.30;;
65825;SDS011;52586;-43.152;172.732;2022-09-03T01:55:17;0.60;;;0.50;;
65825;SDS011;52586;-43.152;172.732;2022-09-03T01:57:58;2.10;;;0.60;;
65825;SDS011;52586;-43.152;172.732;2022-09-03T02:00:36;0.52;;;0.52;;
65825;SDS011;52586;-43.152;172.732;2022-09-03T02:03:11;0.50;;;0.50;;
65825;SDS011;52586;-43.152;172.732;2022-09-03T02:05:42;0.68;;;0.40;;
65825;SDS011;52586;-43.152;172.732;2022-09-03T02:08:13;0.50;;;0.40;;
65825;SDS011;52586;-43.152;172.732;2022-09-03T02:10:44;0.65;;;0.40;;
65825;SDS011;52586;-43.152;172.732;2022-09-03T02:13:19;0.80;;;0.40;;
65825;SDS011;52586;-43.152;172.732;2022-09-03T02:15:55;0.50;;;0.50;;
65825;SDS011;52586;-43.152;172.732;2022-09-03T02:18:29;0.73;;;0.50;;
65825;SDS011;52586;-43.152;172.732;2022-09-03T02:21:01;1.80;;;0.50;;
65825;SDS011;52586;-43.152;172.732;2022-09-03T02:23:32;0.45;;;0.40;;
65825;SDS011;52586;-43.152;172.732;2022-09-03T02:26:03;0.20;;;0.20;;
65825;SDS011;52586;-43.152;172.732;2022-09-03T02:28:37;1.40;;;0.40;;
65825;SDS011;52586;-43.152;172.732;2022-09-03T02:31:10;0.70;;;0.43;;
65825;SDS011;52586;-43.152;172.732;2022-09-03T02:33:41;0.80;;;0.60;;
65825;SDS011;52586;-43.152;172.732;2022-09-03T02:36:16;0.57;;;0.55;;
65825;SDS011;52586;-43.152;172.732;2022-09-03T02:38:49;0.63;;;0.50;;
65825;SDS011;52586;-43.152;172.732;2022-09-03T02:41:19;2.13;;;0.60;;
65825;SDS011;52586;-43.152;172.732;2022-09-03T02:43:53;0.60;;;0.50;;
65825;SDS011;52586;-43.152;172.732;2022-09-03T02:46:32;0.60;;;0.55;;
65825;SDS011;52586;-43.152;172.732;2022-09-03T02:49:06;0.60;;;0.60;;
65825;SDS011;52586;-43.152;172.732;2022-09-03T02:51:38;0.60;;;0.50;;
65825;SDS011;52586;-43.152;172.732;2022-09-03T02:54:09;0.70;;;0.70;;
65825;SDS011;52586;-43.152;172.732;2022-09-03T02:56:41;1.00;;;0.65;;
65825;SDS011;52586;-43.152;172.732;2022-09-03T02:59:13;0.50;;;0.50;;
65825;SDS011;52586;-43.152;172.732;2022-09-03T03:01:46;1.00;;;0.68;;
65825;SDS011;52586;-43.152;172.732;2022-09-03T03:04:17;0.50;;;0.50;;
65825;SDS011;52586;-43.152;172.732;2022-09-03T03:06:47;0.77;;;0.40;;
65825;SDS011;52586;-43.152;172.732;2022-09-03T03:09:18;0.55;;;0.40;;
65825;SDS011;52586;-43.152;172.732;2022-09-03T03:11:49;0.52;;;0.50;;
65825;SDS011;52586;-43.152;172.732;2022-09-03T03:14:20;0.60;;;0.50;;
65825;SDS011;52586;-43.152;172.732;2022-09-03T03:16:53;1.23;;;0.60;;
65825;SDS011;52586;-43.152;172.732;2022-09-03T03:19:23;0.43;;;0.43;;
65825;SDS011;52586;-43.152;172.732;2022-09-03T03:21:54;0.47;;;0.40;;
65825;SDS011;52586;-43.152;172.732;2022-09-03T03:24:25;0.65;;;0.50;;
65825;SDS011;52586;-43.152;172.732;2022-09-03T03:26:56;1.27;;;0.60;;
65825;SDS011;52586;-43.152;172.732;2022-09-03T03:29:26;0.50;;;0.50;;
65825;SDS011;52586;-43.152;172.732;2022-09-03T03:31:59;1.58;;;0.50;;
65825;SDS011;52586;-43.152;172.732;2022-09-03T03:34:30;0.52;;;0.52;;
65825;SDS011;52586;-43.152;172.732;2022-09-03T03:37:00;0.40;;;0.40;;
65825;SDS011;52586;-43.152;172.732;2022-09-03T03:39:31;0.52;;;0.43;;
65825;SDS011;52586;-43.152;172.732;2022-09-03T03:42:02;0.75;;;0.30;;
65825;SDS011;52586;-43.152;172.732;2022-09-03T03:44:32;1.10;;;0.40;;
65825;SDS011;52586;-43.152;172.732;2022-09-03T03:47:05;0.68;;;0.57;;
65825;SDS011;52586;-43.152;172.732;2022-09-03T03:49:36;1.27;;;0.40;;
65825;SDS011;52586;-43.152;172.732;2022-09-03T03:52:06;0.40;;;0.40;;
65825;SDS011;52586;-43.152;172.732;2022-09-03T03:54:37;0.60;;;0.60;;
65825;SDS011;52586;-43.152;172.732;2022-09-03T03:57:08;0.73;;;0.60;;
65825;SDS011;52586;-43.152;172.732;2022-09-03T03:59:38;0.80;;;0.60;;
65825;SDS011;52586;-43.152;172.732;2022-09-03T04:02:11;0.50;;;0.45;;
65825;SDS011;52586;-43.152;172.732;2022-09-03T04:04:42;0.40;;;0.40;;
65825;SDS011;52586;-43.152;172.732;2022-09-03T04:07:12;0.70;;;0.52;;
65825;SDS011;52586;-43.152;172.732;2022-09-03T04:09:43;0.98;;;0.40;;
65825;SDS011;52586;-43.152;172.732;2022-09-03T04:12:14;0.50;;;0.50;;
65825;SDS011;52586;-43.152;172.732;2022-09-03T04:14:45;1.05;;;0.52;;
65825;SDS011;52586;-43.152;172.732;2022-09-03T04:17:17;0.50;;;0.40;;
65825;SDS011;52586;-43.152;172.732;2022-09-03T04:19:48;0.50;;;0.50;;
65825;SDS011;52586;-43.152;172.732;2022-09-03T04:22:19;0.35;;;0.30;;
65825;SDS011;52586;-43.152;172.732;2022-09-03T04:24:49;0.98;;;0.50;;
65825;SDS011;52586;-43.152;172.732;2022-09-03T04:27:20;0.85;;;0.60;;
65825;SDS011;52586;-43.152;172.732;2022-09-03T04:29:50;0.43;;;0.43;;
65825;SDS011;52586;-43.152;172.732;2022-09-03T04:32:23;0.88;;;0.43;;
65825;SDS011;52586;-43.152;172.732;2022-09-03T04:35:11;0.73;;;0.40;;
65825;SDS011;52586;-43.152;172.732;2022-09-03T04:37:42;0.20;;;0.20;;
65825;SDS011;52586;-43.152;172.732;2022-09-03T04:40:12;0.30;;;0.30;;
65825;SDS011;52586;-43.152;172.732;2022-09-03T04:42:43;0.20;;;0.20;;
65825;SDS011;52586;-43.152;172.732;2022-09-03T04:45:14;0.40;;;0.40;;
65825;SDS011;52586;-43.152;172.732;2022-09-03T04:47:56;1.17;;;0.38;;
65825;SDS011;52586;-43.152;172.732;2022-09-03T04:50:28;0.70;;;0.32;;
65825;SDS011;52586;-43.152;172.732;2022-09-03T04:53:01;0.30;;;0.30;;
65825;SDS011;52586;-43.152;172.732;2022-09-03T04:55:32;1.73;;;0.50;;
65825;SDS011;52586;-43.152;172.732;2022-09-03T04:58:04;0.65;;;0.40;;
65825;SDS011;52586;-43.152;172.732;2022-09-03T05:00:35;0.85;;;0.60;;
65825;SDS011;52586;-43.152;172.732;2022-09-03T05:03:07;0.40;;;0.40;;
65825;SDS011;52586;-43.152;172.732;2022-09-03T05:05:38;0.40;;;0.40;;
65825;SDS011;52586;-43.152;172.732;2022-09-03T05:08:09;1.50;;;0.40;;
65825;SDS011;52586;-43.152;172.732;2022-09-03T05:10:39;0.45;;;0.40;;
65825;SDS011;52586;-43.152;172.732;2022-09-03T05:13:10;0.30;;;0.30;;
65825;SDS011;52586;-43.152;172.732;2022-09-03T05:15:41;0.38;;;0.38;;
65825;SDS011;52586;-43.152;172.732;2022-09-03T05:18:13;0.30;;;0.30;;
65825;SDS011;52586;-43.152;172.732;2022-09-03T05:20:44;0.38;;;0.30;;
65825;SDS011;52586;-43.152;172.732;2022-09-03T05:23:15;0.70;;;0.40;;
65825;SDS011;52586;-43.152;172.732;2022-09-03T05:25:54;0.38;;;0.38;;
65825;SDS011;52586;-43.152;172.732;2022-09-03T05:28:25;0.80;;;0.30;;
65825;SDS011;52586;-43.152;172.732;2022-09-03T05:30:59;0.52;;;0.30;;
65825;SDS011;52586;-43.152;172.732;2022-09-03T05:33:34;0.30;;;0.20;;
65825;SDS011;52586;-43.152;172.732;2022-09-03T05:36:06;0.30;;;0.20;;
65825;SDS011;52586;-43.152;172.732;2022-09-03T05:38:38;0.30;;;0.30;;
65825;SDS011;52586;-43.152;172.732;2022-09-03T05:41:10;0.22;;;0.22;;
65825;SDS011;52586;-43.152;172.732;2022-09-03T05:43:41;0.35;;;0.30;;
65825;SDS011;52586;-43.152;172.732;2022-09-03T05:46:13;1.70;;;0.40;;
65825;SDS011;52586;-43.152;172.732;2022-09-03T05:48:46;0.55;;;0.32;;
65825;SDS011;52586;-43.152;172.732;2022-09-03T05:51:16;0.63;;;0.40;;
65825;SDS011;52586;-43.152;172.732;2022-09-03T05:53:47;0.35;;;0.30;;
65825;SDS011;52586;-43.152;172.732;2022-09-03T05:56:18;0.73;;;0.43;;
65825;SDS011;52586;-43.152;172.732;2022-09-03T05:58:50;0.82;;;0.60;;
65825;SDS011;52586;-43.152;172.732;2022-09-03T06:01:22;0.55;;;0.55;;
65825;SDS011;52586;-43.152;172.732;2022-09-03T06:03:56;0.50;;;0.50;;
65825;SDS011;52586;-43.152;172.732;2022-09-03T06:06:28;0.50;;;0.50;;
65825;SDS011;52586;-43.152;172.732;2022-09-03T06:09:00;0.60;;;0.60;;
65825;SDS011;52586;-43.152;172.732;2022-09-03T06:11:33;0.73;;;0.40;;
65825;SDS011;52586;-43.152;172.732;2022-09-03T06:14:04;0.82;;;0.40;;
65825;SDS011;52586;-43.152;172.732;2022-09-03T06:16:37;0.50;;;0.50;;
65825;SDS011;52586;-43.152;172.732;2022-09-03T06:19:10;0.93;;;0.70;;
65825;SDS011;52586;-43.152;172.732;2022-09-03T06:21:41;0.50;;;0.50;;
65825;SDS011;52586;-43.152;172.732;2022-09-03T06:24:13;0.88;;;0.70;;
65825;SDS011;52586;-43.152;172.732;2022-09-03T06:26:45;0.60;;;0.50;;
65825;SDS011;52586;-43.152;172.732;2022-09-03T06:29:15;0.60;;;0.60;;
65825;SDS011;52586;-43.152;172.732;2022-09-03T06:31:47;0.93;;;0.55;;
65825;SDS011;52586;-43.152;172.732;2022-09-03T06:34:19;0.65;;;0.60;;
65825;SDS011;52586;-43.152;172.732;2022-09-03T06:36:52;0.73;;;0.50;;
65825;SDS011;52586;-43.152;172.732;2022-09-03T06:39:23;0.60;;;0.50;;
65825;SDS011;52586;-43.152;172.732;2022-09-03T06:41:53;1.00;;;0.47;;
65825;SDS011;52586;-43.152;172.732;2022-09-03T06:44:24;0.77;;;0.73;;
65825;SDS011;52586;-43.152;172.732;2022-09-03T06:46:55;1.02;;;0.63;;
65825;SDS011;52586;-43.152;172.732;2022-09-03T06:49:28;0.90;;;0.50;;
65825;SDS011;52586;-43.152;172.732;2022-09-03T06:51:59;0.75;;;0.68;;
65825;SDS011;52586;-43.152;172.732;2022-09-03T06:54:29;1.70;;;0.60;;
65825;SDS011;52586;-43.152;172.732;2022-09-03T06:57:00;1.33;;;0.50;;
65825;SDS011;52586;-43.152;172.732;2022-09-03T06:59:31;0.85;;;0.73;;
65825;SDS011;52586;-43.152;172.732;2022-09-03T07:02:01;0.55;;;0.55;;
65825;SDS011;52586;-43.152;172.732;2022-09-03T07:04:34;1.00;;;0.55;;
65825;SDS011;52586;-43.152;172.732;2022-09-03T07:07:05;0.88;;;0.60;;
65825;SDS011;52586;-43.152;172.732;2022-09-03T07:09:38;0.80;;;0.70;;
65825;SDS011;52586;-43.152;172.732;2022-09-03T07:12:09;1.15;;;0.68;;
65825;SDS011;52586;-43.152;172.732;2022-09-03T07:14:41;0.65;;;0.60;;
65825;SDS011;52586;-43.152;172.732;2022-09-03T07:17:14;0.40;;;0.40;;
65825;SDS011;52586;-43.152;172.732;2022-09-03T07:19:46;0.55;;;0.43;;
65825;SDS011;52586;-43.152;172.732;2022-09-03T07:22:17;0.60;;;0.60;;
65825;SDS011;52586;-43.152;172.732;2022-09-03T07:24:48;0.93;;;0.52;;
65825;SDS011;52586;-43.152;172.732;2022-09-03T07:27:18;1.05;;;0.45;;
65825;SDS011;52586;-43.152;172.732;2022-09-03T07:29:49;0.63;;;0.60;;
65825;SDS011;52586;-43.152;172.732;2022-09-03T07:32:20;0.63;;;0.60;;
65825;SDS011;52586;-43.152;172.732;2022-09-03T07:34:52;0.55;;;0.55;;
65825;SDS011;52586;-43.152;172.732;2022-09-03T07:37:23;0.98;;;0.80;;
65825;SDS011;52586;-43.152;172.732;2022-09-03T07:39:54;0.50;;;0.47;;
65825;SDS011;52586;-43.152;172.732;2022-09-03T07:42:24;1.10;;;0.68;;
65825;SDS011;52586;-43.152;172.732;2022-09-03T07:44:56;0.65;;;0.63;;
65825;SDS011;52586;-43.152;172.732;2022-09-03T07:47:26;1.75;;;0.70;;
65825;SDS011;52586;-43.152;172.732;2022-09-03T07:50:01;0.70;;;0.60;;
65825;SDS011;52586;-43.152;172.732;2022-09-03T07:52:32;0.98;;;0.70;;
65825;SDS011;52586;-43.152;172.732;2022-09-03T07:55:03;0.65;;;0.65;;
65825;SDS011;52586;-43.152;172.732;2022-09-03T07:57:34;0.70;;;0.60;;
65825;SDS011;52586;-43.152;172.732;2022-09-03T08:00:05;1.42;;;0.70;;
65825;SDS011;52586;-43.152;172.732;2022-09-03T08:02:38;0.50;;;0.50;;
65825;SDS011;52586;-43.152;172.732;2022-09-03T08:05:10;0.60;;;0.60;;
65825;SDS011;52586;-43.152;172.732;2022-09-03T08:07:44;0.50;;;0.50;;
65825;SDS011;52586;-43.152;172.732;2022-09-03T08:10:15;0.70;;;0.70;;
65825;SDS011;52586;-43.152;172.732;2022-09-03T08:12:46;0.60;;;0.60;;
65825;SDS011;52586;-43.152;172.732;2022-09-03T08:15:17;0.73;;;0.52;;
65825;SDS011;52586;-43.152;172.732;2022-09-03T08:17:48;0.60;;;0.47;;
65825;SDS011;52586;-43.152;172.732;2022-09-03T08:20:20;0.50;;;0.50;;
65825;SDS011;52586;-43.152;172.732;2022-09-03T08:22:51;1.25;;;0.50;;
65825;SDS011;52586;-43.152;172.732;2022-09-03T08:25:28;1.35;;;0.43;;
65825;SDS011;52586;-43.152;172.732;2022-09-03T08:27:58;0.43;;;0.43;;
65825;SDS011;52586;-43.152;172.732;2022-09-03T08:30:29;0.88;;;0.60;;
65825;SDS011;52586;-43.152;172.732;2022-09-03T08:33:00;0.65;;;0.52;;
65825;SDS011;52586;-43.152;172.732;2022-09-03T08:35:34;0.57;;;0.57;;
65825;SDS011;52586;-43.152;172.732;2022-09-03T08:38:04;0.73;;;0.50;;
65825;SDS011;52586;-43.152;172.732;2022-09-03T08:40:36;0.73;;;0.60;;
65825;SDS011;52586;-43.152;172.732;2022-09-03T08:43:08;1.02;;;0.70;;
65825;SDS011;52586;-43.152;172.732;2022-09-03T08:45:45;0.68;;;0.60;;
65825;SDS011;52586;-43.152;172.732;2022-09-03T08:48:17;0.60;;;0.50;;
65825;SDS011;52586;-43.152;172.732;2022-09-03T08:50:52;0.60;;;0.60;;
65825;SDS011;52586;-43.152;172.732;2022-09-03T08:53:28;0.73;;;0.57;;
65825;SDS011;52586;-43.152;172.732;2022-09-03T08:56:06;0.70;;;0.70;;
65825;SDS011;52586;-43.152;172.732;2022-09-03T08:58:39;0.70;;;0.70;;
65825;SDS011;52586;-43.152;172.732;2022-09-03T09:01:11;1.15;;;0.75;;
65825;SDS011;52586;-43.152;172.732;2022-09-03T09:03:53;1.45;;;0.70;;
65825;SDS011;52586;-43.152;172.732;2022-09-03T09:06:35;1.70;;;1.10;;
65825;SDS011;52586;-43.152;172.732;2022-09-03T09:09:16;0.85;;;0.70;;
65825;SDS011;52586;-43.152;172.732;2022-09-03T09:11:57;1.75;;;0.90;;
65825;SDS011;52586;-43.152;172.732;2022-09-03T09:14:37;1.25;;;0.88;;
65825;SDS011;52586;-43.152;172.732;2022-09-03T09:20:05;1.90;;;0.90;;
65825;SDS011;52586;-43.152;172.732;2022-09-03T09:22:46;1.52;;;1.00;;
65825;SDS011;52586;-43.152;172.732;2022-09-03T09:25:19;1.70;;;1.00;;
65825;SDS011;52586;-43.152;172.732;2022-09-03T09:27:53;1.92;;;0.80;;
65825;SDS011;52586;-43.152;172.732;2022-09-03T09:30:27;2.15;;;1.17;;
65825;SDS011;52586;-43.152;172.732;2022-09-03T09:32:59;1.35;;;1.00;;
65825;SDS011;52586;-43.152;172.732;2022-09-03T09:35:30;1.80;;;1.15;;
65825;SDS011;52586;-43.152;172.732;2022-09-03T09:38:02;3.13;;;1.15;;
65825;SDS011;52586;-43.152;172.732;2022-09-03T09:40:33;2.35;;;1.00;;
65825;SDS011;52586;-43.152;172.732;2022-09-03T09:43:07;2.22;;;1.15;;
65825;SDS011;52586;-43.152;172.732;2022-09-03T09:45:41;2.45;;;1.35;;
65825;SDS011;52586;-43.152;172.732;2022-09-03T09:48:15;2.78;;;1.30;;
65825;SDS011;52586;-43.152;172.732;2022-09-03T09:51:02;1.92;;;1.30;;
65825;SDS011;52586;-43.152;172.732;2022-09-03T09:53:35;4.18;;;1.42;;
65825;SDS011;52586;-43.152;172.732;2022-09-03T09:56:06;2.72;;;1.23;;
65825;SDS011;52586;-43.152;172.732;2022-09-03T09:58:48;1.98;;;1.25;;
65825;SDS011;52586;-43.152;172.732;2022-09-03T10:01:20;2.90;;;1.10;;
65825;SDS011;52586;-43.152;172.732;2022-09-03T10:03:55;1.95;;;1.10;;
65825;SDS011;52586;-43.152;172.732;2022-09-03T10:06:28;4.03;;;1.38;;
65825;SDS011;52586;-43.152;172.732;2022-09-03T10:09:17;3.00;;;1.38;;
65825;SDS011;52586;-43.152;172.732;2022-09-03T10:11:49;1.60;;;1.00;;
65825;SDS011;52586;-43.152;172.732;2022-09-03T10:14:28;1.90;;;1.00;;
65825;SDS011;52586;-43.152;172.732;2022-09-03T10:17:08;2.25;;;1.00;;
65825;SDS011;52586;-43.152;172.732;2022-09-03T10:19:45;2.45;;;1.00;;
65825;SDS011;52586;-43.152;172.732;2022-09-03T10:22:37;2.72;;;1.10;;
65825;SDS011;52586;-43.152;172.732;2022-09-03T10:25:14;2.45;;;1.27;;
65825;SDS011;52586;-43.152;172.732;2022-09-03T10:27:45;3.33;;;1.00;;
65825;SDS011;52586;-43.152;172.732;2022-09-03T10:30:16;2.85;;;1.60;;
65825;SDS011;52586;-43.152;172.732;2022-09-03T10:32:50;2.75;;;1.30;;
65825;SDS011;52586;-43.152;172.732;2022-09-03T10:35:27;1.90;;;0.90;;
65825;SDS011;52586;-43.152;172.732;2022-09-03T10:38:03;2.08;;;1.13;;
65825;SDS011;52586;-43.152;172.732;2022-09-03T10:40:41;2.08;;;0.95;;
65825;SDS011;52586;-43.152;172.732;2022-09-03T10:43:21;1.60;;;1.05;;
65825;SDS011;52586;-43.152;172.732;2022-09-03T10:46:09;2.97;;;0.93;;
65825;SDS011;52586;-43.152;172.732;2022-09-03T10:48:47;2.15;;;1.00;;
65825;SDS011;52586;-43.152;172.732;2022-09-03T10:51:30;2.15;;;1.08;;
65825;SDS011;52586;-43.152;172.732;2022-09-03T10:54:07;3.63;;;1.13;;
65825;SDS011;52586;-43.152;172.732;2022-09-03T10:56:53;2.88;;;1.23;;
65825;SDS011;52586;-43.152;172.732;2022-09-03T10:59:32;2.85;;;1.30;;
65825;SDS011;52586;-43.152;172.732;2022-09-03T11:02:15;2.60;;;1.40;;
65825;SDS011;52586;-43.152;172.732;2022-09-03T11:04:57;2.25;;;1.30;;
65825;SDS011;52586;-43.152;172.732;2022-09-03T11:07:33;3.60;;;1.10;;
65825;SDS011;52586;-43.152;172.732;2022-09-03T11:10:10;1.90;;;1.10;;
65825;SDS011;52586;-43.152;172.732;2022-09-03T11:12:46;2.47;;;1.08;;
65825;SDS011;52586;-43.152;172.732;2022-09-03T11:15:23;1.45;;;0.90;;
65825;SDS011;52586;-43.152;172.732;2022-09-03T11:17:58;2.95;;;1.27;;
65825;SDS011;52586;-43.152;172.732;2022-09-03T11:20:36;2.90;;;1.00;;
65825;SDS011;52586;-43.152;172.732;2022-09-03T11:23:08;2.83;;;1.10;;
65825;SDS011;52586;-43.152;172.732;2022-09-03T11:25:40;2.53;;;0.93;;
65825;SDS011;52586;-43.152;172.732;2022-09-03T11:28:19;2.03;;;1.02;;
65825;SDS011;52586;-43.152;172.732;2022-09-03T11:31:10;3.25;;;1.52;;
65825;SDS011;52586;-43.152;172.732;2022-09-03T11:33:50;2.55;;;1.20;;
65825;SDS011;52586;-43.152;172.732;2022-09-03T11:36:28;2.35;;;1.00;;
65825;SDS011;52586;-43.152;172.732;2022-09-03T11:39:00;3.08;;;1.08;;
65825;SDS011;52586;-43.152;172.732;2022-09-03T11:41:55;3.95;;;1.00;;
65825;SDS011;52586;-43.152;172.732;2022-09-03T11:44:37;2.35;;;0.90;;
65825;SDS011;52586;-43.152;172.732;2022-09-03T11:47:13;2.65;;;1.10;;
65825;SDS011;52586;-43.152;172.732;2022-09-03T11:49:45;2.70;;;1.10;;
65825;SDS011;52586;-43.152;172.732;2022-09-03T11:52:26;3.90;;;1.60;;
65825;SDS011;52586;-43.152;172.732;2022-09-03T11:54:58;1.58;;;1.13;;
65825;SDS011;52586;-43.152;172.732;2022-09-03T11:57:29;3.20;;;1.20;;
65825;SDS011;52586;-43.152;172.732;2022-09-03T12:00:10;1.90;;;1.02;;
65825;SDS011;52586;-43.152;172.732;2022-09-03T12:02:43;2.58;;;1.02;;
65825;SDS011;52586;-43.152;172.732;2022-09-03T12:05:19;2.40;;;1.20;;
65825;SDS011;52586;-43.152;172.732;2022-09-03T12:08:01;1.75;;;1.00;;
65825;SDS011;52586;-43.152;172.732;2022-09-03T12:10:52;2.13;;;0.88;;
65825;SDS011;52586;-43.152;172.732;2022-09-03T12:13:43;1.30;;;0.98;;
65825;SDS011;52586;-43.152;172.732;2022-09-03T12:16:26;3.05;;;1.00;;
65825;SDS011;52586;-43.152;172.732;2022-09-03T12:19:06;2.70;;;1.17;;
65825;SDS011;52586;-43.152;172.732;2022-09-03T12:21:46;1.77;;;1.08;;
65825;SDS011;52586;-43.152;172.732;2022-09-03T12:24:18;2.67;;;1.10;;
65825;SDS011;52586;-43.152;172.732;2022-09-03T12:26:49;2.20;;;1.00;;
65825;SDS011;52586;-43.152;172.732;2022-09-03T12:29:22;2.05;;;0.90;;
65825;SDS011;52586;-43.152;172.732;2022-09-03T12:31:55;2.65;;;1.10;;
65825;SDS011;52586;-43.152;172.732;2022-09-03T12:34:35;4.68;;;1.40;;
65825;SDS011;52586;-43.152;172.732;2022-09-03T12:37:14;1.65;;;0.80;;
65825;SDS011;52586;-43.152;172.732;2022-09-03T12:39:52;2.15;;;1.10;;
65825;SDS011;52586;-43.152;172.732;2022-09-03T12:42:24;2.17;;;1.20;;
65825;SDS011;52586;-43.152;172.732;2022-09-03T12:45:04;1.80;;;0.93;;
65825;SDS011;52586;-43.152;172.732;2022-09-03T12:47:39;2.50;;;1.40;;
65825;SDS011;52586;-43.152;172.732;2022-09-03T12:50:11;1.40;;;0.90;;
65825;SDS011;52586;-43.152;172.732;2022-09-03T12:52:44;1.83;;;0.90;;
65825;SDS011;52586;-43.152;172.732;2022-09-03T12:58:06;1.38;;;0.82;;
65825;SDS011;52586;-43.152;172.732;2022-09-03T13:00:44;2.08;;;0.90;;
65825;SDS011;52586;-43.152;172.732;2022-09-03T13:03:21;2.00;;;1.15;;
65825;SDS011;52586;-43.152;172.732;2022-09-03T13:05:57;1.58;;;0.77;;
65825;SDS011;52586;-43.152;172.732;2022-09-03T13:08:30;1.63;;;0.80;;
65825;SDS011;52586;-43.152;172.732;2022-09-03T13:11:05;1.98;;;1.05;;
65825;SDS011;52586;-43.152;172.732;2022-09-03T13:13:36;2.85;;;0.90;;
65825;SDS011;52586;-43.152;172.732;2022-09-03T13:16:23;0.85;;;0.57;;
65825;SDS011;52586;-43.152;172.732;2022-09-03T13:19:16;2.20;;;0.80;;
65825;SDS011;52586;-43.152;172.732;2022-09-03T13:21:55;1.48;;;0.85;;
65825;SDS011;52586;-43.152;172.732;2022-09-03T13:27:31;2.67;;;1.05;;
65825;SDS011;52586;-43.152;172.732;2022-09-03T13:30:07;2.35;;;1.15;;
65825;SDS011;52586;-43.152;172.732;2022-09-03T13:32:49;1.88;;;0.70;;
65825;SDS011;52586;-43.152;172.732;2022-09-03T13:35:29;1.77;;;1.00;;
65825;SDS011;52586;-43.152;172.732;2022-09-03T13:38:07;1.13;;;0.90;;
65825;SDS011;52586;-43.152;172.732;2022-09-03T13:40:44;1.08;;;0.68;;
65825;SDS011;52586;-43.152;172.732;2022-09-03T13:43:22;1.55;;;0.82;;
65825;SDS011;52586;-43.152;172.732;2022-09-03T13:46:00;1.30;;;1.05;;
65825;SDS011;52586;-43.152;172.732;2022-09-03T13:48:35;1.95;;;1.00;;
65825;SDS011;52586;-43.152;172.732;2022-09-03T13:51:26;2.58;;;0.90;;
65825;SDS011;52586;-43.152;172.732;2022-09-03T13:54:03;1.40;;;0.70;;
65825;SDS011;52586;-43.152;172.732;2022-09-03T13:56:41;1.95;;;0.90;;
65825;SDS011;52586;-43.152;172.732;2022-09-03T13:59:22;1.45;;;0.82;;
65825;SDS011;52586;-43.152;172.732;2022-09-03T14:05:00;1.25;;;0.75;;
65825;SDS011;52586;-43.152;172.732;2022-09-03T14:07:46;0.73;;;0.60;;
65825;SDS011;52586;-43.152;172.732;2022-09-03T14:10:29;2.22;;;1.00;;
65825;SDS011;52586;-43.152;172.732;2022-09-03T14:13:13;2.90;;;0.77;;
65825;SDS011;52586;-43.152;172.732;2022-09-03T14:15:51;1.80;;;1.00;;
65825;SDS011;52586;-43.152;172.732;2022-09-03T14:18:34;1.60;;;0.80;;
65825;SDS011;52586;-43.152;172.732;2022-09-03T14:21:14;1.20;;;0.70;;
65825;SDS011;52586;-43.152;172.732;2022-09-03T14:23:50;1.98;;;0.90;;
65825;SDS011;52586;-43.152;172.732;2022-09-03T14:26:30;1.10;;;0.73;;
65825;SDS011;52586;-43.152;172.732;2022-09-03T14:29:04;1.17;;;0.70;;
65825;SDS011;52586;-43.152;172.732;2022-09-03T14:35:09;1.50;;;1.13;;
65825;SDS011;52586;-43.152;172.732;2022-09-03T14:41:05;1.48;;;0.90;;
65825;SDS011;52586;-43.152;172.732;2022-09-03T14:47:08;1.60;;;0.85;;
65825;SDS011;52586;-43.152;172.732;2022-09-03T14:49:54;1.65;;;1.00;;
65825;SDS011;52586;-43.152;172.732;2022-09-03T14:55:57;1.25;;;0.90;;
65825;SDS011;52586;-43.152;172.732;2022-09-03T14:58:59;1.02;;;0.93;;
65825;SDS011;52586;-43.152;172.732;2022-09-03T15:01:45;1.13;;;0.70;;
65825;SDS011;52586;-43.152;172.732;2022-09-03T15:04:49;1.17;;;0.65;;
65825;SDS011;52586;-43.152;172.732;2022-09-03T15:07:34;1.10;;;0.70;;
65825;SDS011;52586;-43.152;172.732;2022-09-03T15:10:13;1.15;;;0.70;;
65825;SDS011;52586;-43.152;172.732;2022-09-03T15:12:52;1.33;;;0.75;;
65825;SDS011;52586;-43.152;172.732;2022-09-03T15:15:28;2.33;;;0.85;;
65825;SDS011;52586;-43.152;172.732;2022-09-03T15:18:09;1.48;;;0.90;;
65825;SDS011;52586;-43.152;172.732;2022-09-03T15:20:48;1.30;;;0.95;;
65825;SDS011;52586;-43.152;172.732;2022-09-03T15:23:22;2.17;;;0.98;;